Time;durP1;ratioP1;P1;durP2;ratioP2;P2;SDS_P1;SDS_P2;PMS_P1;PMS_P2;Temp;Humidity;BMP_temperature;BMP_pressure;BME280_temperature;BME280_humidity;BME280_pressure;Samples;Min_cycle;Max_cycle;Signal;HPM_P1;HPM_P2
2022/01/22 00:00:59;;;;;;;8.68;2.70;;;1.30;81.40;;;;;;5016811;28;20044;-77
2022/01/22 00:03:24;;;;;;;7.20;3.20;;;1.40;81.30;;;;;;5016645;28;20027;-77
2022/01/22 00:05:50;;;;;;;6.47;2.70;;;1.40;81.40;;;;;;5016445;28;20113;-77
2022/01/22 00:08:15;;;;;;;5.38;2.78;;;1.40;82.30;;;;;;5015207;28;20439;-76
2022/01/22 00:10:44;;;;;;;13.45;4.15;;;1.50;81.50;;;;;;5016240;28;20387;-77
2022/01/22 00:15:45;;;;;;;3.63;2.70;;;1.60;82.50;;;;;;5016348;28;20025;-77
2022/01/22 00:18:11;;;;;;;10.02;3.60;;;1.70;82.50;;;;;;5016183;28;20379;-77
2022/01/22 00:20:37;;;;;;;10.57;3.95;;;1.70;82.40;;;;;;5014884;28;20022;-77
2022/01/22 00:23:03;;;;;;;9.88;3.38;;;1.70;81.20;;;;;;5016025;28;20046;-77
2022/01/22 00:25:29;;;;;;;7.55;3.45;;;1.60;81.60;;;;;;5016099;28;20053;-77
2022/01/22 00:27:55;;;;;;;6.60;3.25;;;1.60;81.60;;;;;;5016124;28;20426;-77
2022/01/22 00:30:24;;;;;;;12.48;3.22;;;1.60;81.20;;;;;;5016152;28;20018;-77
2022/01/22 00:32:50;;;;;;;7.45;2.90;;;1.70;80.60;;;;;;5015904;28;20029;-77
2022/01/22 00:35:17;;;;;;;9.23;2.80;;;1.60;80.40;;;;;;5015961;28;20014;-77
2022/01/22 00:37:45;;;;;;;4.97;2.70;;;1.60;79.40;;;;;;5015893;28;20467;-77
2022/01/22 00:40:13;;;;;;;8.93;3.00;;;1.50;79.70;;;;;;5015781;28;20029;-77
2022/01/22 00:42:38;;;;;;;8.48;3.00;;;1.40;80.80;;;;;;5015827;28;20029;-77
2022/01/22 00:45:04;;;;;;;10.00;3.55;;;1.40;80.80;;;;;;5015770;28;20034;-77
2022/01/22 00:47:30;;;;;;;13.00;3.47;;;1.50;80.20;;;;;;5015690;28;20029;-77
2022/01/22 00:49:56;;;;;;;10.07;3.42;;;1.60;80.30;;;;;;5015491;28;20022;-77
2022/01/22 00:52:21;;;;;;;8.05;3.38;;;1.60;79.80;;;;;;5015697;28;20022;-77
2022/01/22 00:54:47;;;;;;;10.63;3.33;;;1.60;80.00;;;;;;4998114;28;20034;-77
2022/01/22 00:57:13;;;;;;;10.75;3.45;;;1.60;79.80;;;;;;5015504;28;20030;-77
2022/01/22 00:59:38;;;;;;;12.38;3.80;;;1.60;79.80;;;;;;5015312;28;20513;-77
2022/01/22 01:02:04;;;;;;;8.65;3.88;;;1.60;80.00;;;;;;5015462;28;20029;-77
2022/01/22 01:04:33;;;;;;;8.30;3.47;;;1.50;80.30;;;;;;5015371;28;20026;-77
2022/01/22 01:06:59;;;;;;;13.07;3.97;;;1.50;80.30;;;;;;5015349;28;20029;-77
2022/01/22 01:09:24;;;;;;;15.20;3.80;;;1.40;81.00;;;;;;5015304;28;20517;-78
2022/01/22 01:11:55;;;;;;;8.55;3.75;;;1.30;81.60;;;;;;5015224;28;20108;-77
2022/01/22 01:14:28;;;;;;;10.18;3.78;;;1.40;81.90;;;;;;5015299;28;20076;-77
2022/01/22 01:17:11;;;;;;;9.52;3.90;;;1.40;81.90;;;;;;5015137;28;20026;-77
2022/01/22 01:33:33;;;;;;;13.43;4.63;;;1.40;82.40;;;;;;5015214;28;20072;-77
2022/01/22 01:36:00;;;;;;;7.00;4.03;;;1.40;82.90;;;;;;5014856;28;20022;-77
2022/01/22 01:38:26;;;;;;;14.85;4.85;;;1.40;83.30;;;;;;5014693;28;20049;-77
2022/01/22 01:41:02;;;;;;;11.90;4.13;;;1.40;83.50;;;;;;5014829;28;20022;-77
2022/01/22 01:43:33;;;;;;;9.02;4.30;;;1.30;84.20;;;;;;5014752;28;20466;-77
2022/01/22 01:45:59;;;;;;;10.73;4.10;;;1.30;84.40;;;;;;5013569;28;20030;-77
2022/01/22 01:48:29;;;;;;;16.55;5.28;;;1.40;84.30;;;;;;5014678;28;20363;-77
2022/01/22 01:50:57;;;;;;;9.80;4.68;;;1.40;84.10;;;;;;5014731;28;20021;-77
2022/01/22 01:53:50;;;;;;;10.05;4.60;;;1.50;84.10;;;;;;5014658;28;20402;-77
2022/01/22 01:59:00;;;;;;;14.55;5.70;;;1.40;83.00;;;;;;5014477;28;20053;-77
2022/01/22 02:01:25;;;;;;;13.40;5.05;;;1.40;83.20;;;;;;5013762;28;20482;-78
2022/01/22 02:03:51;;;;;;;15.48;5.15;;;1.40;83.20;;;;;;5014371;28;20030;-77
2022/01/22 02:06:17;;;;;;;10.45;4.13;;;1.40;83.30;;;;;;5013054;28;20101;-77
2022/01/22 02:08:42;;;;;;;9.10;4.15;;;1.40;82.80;;;;;;5014287;28;20677;-78
2022/01/22 02:11:09;;;;;;;12.10;4.72;;;1.40;82.40;;;;;;5014271;28;20034;-77
2022/01/22 02:13:59;;;;;;;15.85;5.03;;;1.50;82.70;;;;;;5014082;28;20022;-78
2022/01/22 02:24:44;;;;;;;13.07;5.10;;;1.50;82.30;;;;;;5014023;28;20057;-77
2022/01/22 02:27:10;;;;;;;15.27;5.60;;;1.50;82.20;;;;;;5014042;28;20026;-77
2022/01/22 02:29:36;;;;;;;14.05;4.97;;;1.50;81.90;;;;;;5013897;28;20037;-78
2022/01/22 02:32:32;;;;;;;16.58;5.20;;;1.60;81.90;;;;;;5013829;28;20051;-77
2022/01/22 02:34:57;;;;;;;7.47;4.28;;;1.60;81.60;;;;;;5013733;28;20452;-78
2022/01/22 02:37:29;;;;;;;12.38;5.13;;;1.60;81.10;;;;;;5013937;28;20122;-77
2022/01/22 02:42:47;;;;;;;17.77;4.82;;;1.60;81.10;;;;;;5011671;28;20130;-77
2022/01/22 02:45:18;;;;;;;16.77;5.40;;;1.50;81.20;;;;;;5013712;28;20057;-78
2022/01/22 02:47:44;;;;;;;12.70;5.10;;;1.50;81.20;;;;;;5013521;28;20034;-75
2022/01/22 02:50:10;;;;;;;10.18;4.45;;;1.50;81.10;;;;;;5013645;28;20036;-76
2022/01/22 02:52:35;;;;;;;11.65;5.07;;;1.50;81.00;;;;;;5013511;28;20022;-77
2022/01/22 02:55:03;;;;;;;10.32;4.68;;;1.50;81.00;;;;;;5013615;28;20025;-77
2022/01/22 02:57:31;;;;;;;11.27;4.40;;;1.60;80.90;;;;;;5013416;28;20113;-77
2022/01/22 02:59:58;;;;;;;12.75;4.63;;;1.60;80.80;;;;;;5013378;28;20100;-78
2022/01/22 03:02:24;;;;;;;8.10;4.38;;;1.70;80.30;;;;;;5013381;28;20475;-78
2022/01/22 03:04:50;;;;;;;13.27;4.72;;;1.70;80.20;;;;;;5013338;28;20040;-76
2022/01/22 03:07:15;;;;;;;9.68;4.47;;;1.70;80.30;;;;;;5013244;28;20045;-76
2022/01/22 03:09:43;;;;;;;11.75;4.78;;;1.70;79.40;;;;;;5013220;28;20033;-76
2022/01/22 03:22:24;;;;;;;16.23;4.38;;;1.70;79.60;;;;;;5013250;28;20025;-76
2022/01/22 03:27:34;;;;;;;12.50;4.60;;;1.70;79.20;;;;;;5013138;28;20040;-78
2022/01/22 03:30:01;;;;;;;16.92;5.30;;;1.70;79.60;;;;;;5013195;28;20514;-75
2022/01/22 03:32:33;;;;;;;8.75;4.55;;;1.70;79.90;;;;;;5013017;28;20367;-77
2022/01/22 03:35:08;;;;;;;11.05;4.65;;;1.60;80.00;;;;;;5013054;28;20022;-77
2022/01/22 03:37:34;;;;;;;14.13;5.07;;;1.60;80.00;;;;;;5013051;28;20022;-76
2022/01/22 03:40:00;;;;;;;11.30;4.72;;;1.60;80.30;;;;;;5013024;28;20041;-76
2022/01/22 03:42:25;;;;;;;10.48;4.47;;;1.60;80.40;;;;;;5013017;28;20033;-76
2022/01/22 03:44:51;;;;;;;12.40;5.03;;;1.60;80.60;;;;;;5011722;28;20505;-76
2022/01/22 03:47:17;;;;;;;13.18;5.10;;;1.50;81.20;;;;;;5012965;28;20030;-76
2022/01/22 03:49:43;;;;;;;14.07;4.85;;;1.50;81.30;;;;;;5012870;28;20038;-76
2022/01/22 03:52:09;;;;;;;13.48;5.18;;;1.40;81.40;;;;;;5012886;28;20026;-76
2022/01/22 03:54:35;;;;;;;12.68;4.72;;;1.40;81.60;;;;;;5012842;28;20022;-75
2022/01/22 03:57:01;;;;;;;9.93;4.93;;;1.40;81.70;;;;;;5012952;28;20026;-76
2022/01/22 03:59:29;;;;;;;8.55;4.47;;;1.60;81.80;;;;;;5012681;28;20101;-76
2022/01/22 04:09:43;;;;;;;11.32;5.78;;;1.60;81.80;;;;;;5012910;28;20032;-77
2022/01/22 04:12:12;;;;;;;12.80;5.85;;;1.50;82.30;;;;;;5012918;28;20391;-76
2022/01/22 04:14:45;;;;;;;15.85;6.45;;;1.50;82.70;;;;;;5012512;28;20101;-77
2022/01/22 04:25:09;;;;;;;15.35;6.78;;;1.60;83.30;;;;;;5016183;28;20041;-77
2022/01/22 04:27:35;;;;;;;13.00;7.03;;;1.60;84.00;;;;;;5016006;28;20025;-76
2022/01/22 04:30:01;;;;;;;16.75;7.22;;;1.60;84.20;;;;;;5016063;28;20105;-76
2022/01/22 04:32:31;;;;;;;20.85;8.93;;;1.50;84.50;;;;;;5016074;28;20040;-76
2022/01/22 04:34:57;;;;;;;23.10;7.97;;;1.50;84.80;;;;;;5015941;28;20092;-77
2022/01/22 04:37:24;;;;;;;15.80;7.65;;;1.50;85.00;;;;;;5015894;28;20033;-76
2022/01/22 04:39:51;;;;;;;18.20;7.70;;;1.50;85.40;;;;;;5015625;28;20040;-76
2022/01/22 04:42:19;;;;;;;19.58;8.18;;;1.50;85.60;;;;;;5015858;28;20124;-76
2022/01/22 04:44:55;;;;;;;21.15;9.80;;;1.60;85.70;;;;;;5015598;28;20505;-76
2022/01/22 04:52:43;;;;;;;23.88;8.65;;;1.50;86.20;;;;;;5015666;28;20549;-76
2022/01/22 04:55:10;;;;;;;22.45;9.35;;;1.40;86.80;;;;;;5015594;28;20403;-76
2022/01/22 04:57:42;;;;;;;21.30;9.45;;;1.40;87.40;;;;;;5015427;28;20022;-76
2022/01/22 05:00:13;;;;;;;22.20;9.45;;;1.20;87.70;;;;;;5015384;28;20060;-77
2022/01/22 05:02:39;;;;;;;27.98;10.52;;;1.00;89.00;;;;;;5015317;28;20026;-79
2022/01/22 05:05:06;;;;;;;27.20;12.07;;;1.00;89.50;;;;;;4997744;28;20092;-76
2022/01/22 05:07:32;;;;;;;22.45;10.60;;;1.10;89.50;;;;;;5015260;28;20046;-77
2022/01/22 05:09:58;;;;;;;27.13;13.20;;;1.10;89.60;;;;;;5015357;28;20442;-76
2022/01/22 05:12:23;;;;;;;24.23;10.98;;;1.00;89.80;;;;;;5015363;28;20498;-76
2022/01/22 05:14:49;;;;;;;23.25;9.90;;;1.00;89.90;;;;;;4997758;28;20022;-76
2022/01/22 05:17:17;;;;;;;23.90;10.32;;;1.10;89.80;;;;;;5015254;28;20352;-78
2022/01/22 05:22:39;;;;;;;28.80;10.93;;;1.20;89.60;;;;;;5015227;28;20028;-76
2022/01/22 05:25:09;;;;;;;25.92;11.40;;;1.10;89.60;;;;;;4997710;28;20050;-79
2022/01/22 05:28:06;;;;;;;33.03;13.05;;;1.00;90.20;;;;;;4997442;28;20120;-78
2022/01/22 05:30:52;;;;;;;;;;;1.00;90.30;;;;;;5014866;28;20061;-78
2022/01/22 05:36:53;;;;;;;28.63;11.90;;;1.00;90.70;;;;;;4997397;28;19912;-78
2022/01/22 05:38:47;;;;;;;35.63;12.23;;;1.00;91.10;;;;;;5014927;28;20045;-78
2022/01/22 05:41:13;;;;;;;26.77;13.10;;;1.00;91.10;;;;;;4997355;28;20026;-77
2022/01/22 05:43:38;;;;;;;28.83;12.40;;;1.10;91.00;;;;;;4997243;28;20030;-77
2022/01/22 05:46:04;;;;;;;25.27;11.43;;;1.10;90.80;;;;;;4997391;28;20029;-77
2022/01/22 05:48:30;;;;;;;29.95;13.30;;;1.10;90.60;;;;;;4997204;28;20109;-77
2022/01/22 05:51:00;;;;;;;24.95;10.95;;;1.10;90.70;;;;;;4997949;28;20561;-77
2022/01/22 06:01:18;;;;;;;38.40;14.05;;;1.20;90.20;;;;;;5014687;28;20092;-77
2022/01/22 06:03:45;;;;;;;29.98;13.43;;;1.20;90.80;;;;;;4996729;28;20022;-77
2022/01/22 06:06:11;;;;;;;28.88;13.68;;;1.10;90.70;;;;;;4996954;28;20112;-77
2022/01/22 06:08:51;;;;;;;43.80;14.07;;;1.10;90.90;;;;;;4996717;28;20026;-77
2022/01/22 06:11:29;;;;;;;31.13;13.68;;;1.20;90.60;;;;;;4997116;28;20029;-77
2022/01/22 06:13:54;;;;;;;31.75;13.18;;;1.20;90.70;;;;;;4996940;28;20030;-77
2022/01/22 06:16:22;;;;;;;31.17;13.77;;;1.20;90.30;;;;;;4997505;28;20117;-77
2022/01/22 06:18:48;;;;;;;31.65;12.73;;;1.20;90.20;;;;;;4996304;28;20494;-77
2022/01/22 06:21:14;;;;;;;25.25;12.07;;;1.30;89.90;;;;;;4996543;28;20475;-77
2022/01/22 06:23:41;;;;;;;28.90;14.18;;;1.40;89.40;;;;;;4993064;28;20054;-77
2022/01/22 06:26:07;;;;;;;35.55;14.10;;;1.30;89.30;;;;;;4992919;28;20023;-77
2022/01/22 06:28:34;;;;;;;32.88;15.10;;;1.30;89.40;;;;;;4992794;28;20056;-77
2022/01/22 06:31:01;;;;;;;39.40;16.10;;;1.20;89.70;;;;;;4993079;28;20026;-77
2022/01/22 06:33:34;;;;;;;33.13;16.02;;;1.10;90.30;;;;;;4993985;28;20041;-77
2022/01/22 06:36:00;;;;;;;33.58;14.88;;;1.10;90.20;;;;;;4992824;28;20026;-77
2022/01/22 06:38:27;;;;;;;32.80;13.85;;;1.10;90.40;;;;;;4992271;28;20035;-77
2022/01/22 06:43:36;;;;;;;37.40;14.88;;;1.10;91.50;;;;;;4994071;28;20120;-77
2022/01/22 06:46:02;;;;;;;30.90;13.90;;;1.10;90.70;;;;;;4992501;28;20070;-77
2022/01/22 06:48:28;;;;;;;38.50;15.48;;;1.10;90.80;;;;;;4992321;28;20032;-77
2022/01/22 06:50:53;;;;;;;46.00;15.85;;;1.20;90.70;;;;;;4992489;28;20026;-76
2022/01/22 06:53:19;;;;;;;32.08;15.02;;;1.20;90.30;;;;;;4992354;28;20018;-76
2022/01/22 06:55:56;;;;;;;36.13;14.60;;;1.20;90.20;;;;;;4992487;28;20076;-76
2022/01/22 06:58:22;;;;;;;34.10;15.07;;;1.20;89.90;;;;;;4992595;28;20027;-78
2022/01/22 07:00:47;;;;;;;33.92;15.57;;;1.20;90.30;;;;;;4992508;28;20448;-78
2022/01/22 07:03:13;;;;;;;41.97;17.77;;;1.10;90.90;;;;;;4976206;28;20034;-79
2022/01/22 07:05:38;;;;;;;47.03;17.25;;;1.00;91.40;;;;;;4992430;28;20041;-78
2022/01/22 07:08:04;;;;;;;43.13;19.10;;;1.00;91.60;;;;;;4992533;28;20025;-76
2022/01/22 07:10:31;;;;;;;54.20;20.30;;;1.10;91.50;;;;;;4976402;28;20030;-78
2022/01/22 07:12:57;;;;;;;41.47;17.80;;;1.10;91.30;;;;;;4992336;28;20026;-76
2022/01/22 07:15:22;;;;;;;41.47;17.80;;;1.20;91.90;;;;;;4992445;28;20517;-77
2022/01/22 07:17:48;;;;;;;39.67;19.40;;;1.20;91.00;;;;;;4992172;28;20069;-77
2022/01/22 07:20:17;;;;;;;43.63;18.65;;;1.30;91.50;;;;;;4992035;28;20038;-77
2022/01/22 07:22:53;;;;;;;37.67;17.60;;;1.30;90.50;;;;;;4994986;28;20030;-77
2022/01/22 07:25:19;;;;;;;40.85;17.15;;;1.30;90.50;;;;;;4995322;28;20085;-77
2022/01/22 07:27:45;;;;;;;43.47;17.27;;;1.30;90.50;;;;;;4995234;28;20075;-77
2022/01/22 07:30:11;;;;;;;39.97;18.25;;;1.30;90.60;;;;;;4995198;28;20122;-77
2022/01/22 07:32:41;;;;;;;40.55;19.50;;;1.30;90.40;;;;;;4994979;28;20026;-76
2022/01/22 07:35:08;;;;;;;41.60;19.33;;;1.40;90.50;;;;;;4994336;28;20478;-76
2022/01/22 07:37:35;;;;;;;45.80;19.65;;;1.40;90.50;;;;;;4994878;28;20037;-76
2022/01/22 07:40:01;;;;;;;34.67;13.93;;;1.40;90.60;;;;;;4995370;28;20033;-83
2022/01/22 07:42:28;;;;;;;45.28;19.10;;;1.90;95.70;;;;;;4995115;28;20030;-83
2022/01/22 07:44:53;;;;;;;42.10;16.77;;;2.60;98.00;;;;;;4995625;28;20026;-78
2022/01/22 07:47:20;;;;;;;39.95;17.40;;;3.10;95.90;;;;;;4995876;28;20117;-83
2022/01/22 07:49:47;;;;;;;41.15;17.80;;;3.60;92.20;;;;;;4981929;28;20096;-83
2022/01/22 07:52:13;;;;;;;29.73;14.45;;;3.90;86.30;;;;;;4994982;28;20030;-82
2022/01/22 07:54:39;;;;;;;32.67;15.07;;;4.00;83.40;;;;;;4995099;28;20038;-81
2022/01/22 07:57:06;;;;;;;28.00;14.50;;;4.00;80.70;;;;;;4994567;28;20041;-82
2022/01/22 07:59:55;;;;;;;25.85;14.15;;;4.00;80.70;;;;;;4981642;28;20198;-81
2022/01/22 08:02:22;;;;;;;36.70;16.83;;;4.00;79.60;;;;;;5016339;28;20025;-81
2022/01/22 08:04:52;;;;;;;33.08;17.20;;;3.90;79.10;;;;;;4999838;28;20034;-79
2022/01/22 08:07:17;;;;;;;27.45;13.40;;;4.00;78.80;;;;;;4997179;28;20386;-78
2022/01/22 08:09:45;;;;;;;30.83;14.45;;;4.00;77.70;;;;;;4998668;28;20033;-78
2022/01/22 08:12:11;;;;;;;33.97;14.73;;;3.90;77.40;;;;;;4982181;28;20095;-79
2022/01/22 08:14:38;;;;;;;32.80;14.27;;;3.80;77.40;;;;;;4998224;28;20490;-79
2022/01/22 08:17:04;;;;;;;34.47;15.68;;;3.80;77.90;;;;;;4997748;28;20088;-79
2022/01/22 08:19:30;;;;;;;30.73;13.95;;;3.80;78.20;;;;;;4997998;28;20478;-76
2022/01/22 08:21:55;;;;;;;29.27;14.90;;;3.80;77.80;;;;;;4998461;28;20075;-78
2022/01/22 08:24:25;;;;;;;27.13;14.10;;;3.90;77.40;;;;;;4998055;28;20530;-78
2022/01/22 08:27:06;;;;;;;26.35;14.18;;;3.90;77.10;;;;;;4998205;28;20538;-78
2022/01/22 08:29:32;;;;;;;35.90;15.13;;;3.80;76.60;;;;;;4998159;28;20057;-79
2022/01/22 08:37:47;;;;;;;32.72;13.90;;;3.20;78.20;;;;;;4992322;28;20382;-77
2022/01/22 08:40:13;;;;;;;30.25;14.55;;;3.00;78.90;;;;;;4981921;28;20033;-75
2022/01/22 08:42:39;;;;;;;28.85;13.60;;;2.80;79.30;;;;;;4998017;28;20025;-77
2022/01/22 08:45:05;;;;;;;36.75;14.73;;;2.70;80.10;;;;;;4998175;28;20022;-80
2022/01/22 08:47:31;;;;;;;36.80;14.98;;;2.50;80.90;;;;;;4997981;28;20105;-80
2022/01/22 08:49:56;;;;;;;27.70;13.52;;;2.40;81.20;;;;;;4998005;28;20021;-78
2022/01/22 08:52:28;;;;;;;34.10;14.07;;;2.40;81.50;;;;;;4997992;28;20471;-79
2022/01/22 08:54:54;;;;;;;33.20;14.13;;;2.30;81.90;;;;;;5015460;28;20100;-82
2022/01/22 08:57:20;;;;;;;40.78;13.85;;;2.20;82.50;;;;;;4997818;28;20406;-80
2022/01/22 08:59:45;;;;;;;25.60;13.48;;;2.20;82.60;;;;;;4996647;28;20074;-81
2022/01/22 09:02:13;;;;;;;29.60;14.65;;;2.20;82.70;;;;;;4998597;28;20022;-79
2022/01/22 09:04:38;;;;;;;22.75;12.90;;;2.20;82.30;;;;;;4999378;28;20036;-80
2022/01/22 09:07:04;;;;;;;28.02;14.20;;;2.10;82.70;;;;;;4997682;28;20108;-80
2022/01/22 09:09:30;;;;;;;29.70;13.82;;;2.10;83.00;;;;;;4997240;28;20499;-80
2022/01/22 09:11:56;;;;;;;28.58;13.40;;;2.10;83.10;;;;;;4997659;28;20466;-80
2022/01/22 09:14:22;;;;;;;27.92;13.77;;;2.10;82.80;;;;;;5015332;28;20553;-81
2022/01/22 09:16:51;;;;;;;28.33;13.55;;;2.10;82.70;;;;;;4997656;28;20061;-80
2022/01/22 09:19:17;;;;;;;29.33;13.60;;;2.00;83.30;;;;;;4997136;28;20037;-80
2022/01/22 09:21:45;;;;;;;30.88;15.38;;;2.00;83.80;;;;;;4997191;28;20078;-80
2022/01/22 09:24:15;;;;;;;28.27;12.35;;;2.00;84.00;;;;;;4997616;28;20042;-80
2022/01/22 09:26:41;;;;;;;24.27;13.77;;;2.10;83.70;;;;;;4995079;28;20105;-78
2022/01/22 09:29:06;;;;;;;31.27;14.30;;;2.10;83.20;;;;;;4997257;28;20061;-79
2022/01/22 09:31:33;;;;;;;30.90;12.82;;;2.10;83.00;;;;;;4980851;28;20053;-80
2022/01/22 09:34:00;;;;;;;28.55;12.35;;;2.20;83.00;;;;;;4998289;28;20502;-80
2022/01/22 09:36:28;;;;;;;35.63;13.10;;;2.20;83.00;;;;;;5014635;28;20065;-79
2022/01/22 09:38:54;;;;;;;24.35;11.93;;;2.20;82.70;;;;;;5014215;28;20033;-80
2022/01/22 09:41:22;;;;;;;29.52;13.43;;;2.20;82.60;;;;;;4996726;28;20129;-80
2022/01/22 09:43:47;;;;;;;24.70;12.65;;;2.20;82.90;;;;;;4996638;28;20041;-80
2022/01/22 09:46:13;;;;;;;24.50;12.35;;;2.20;83.80;;;;;;4997077;28;20474;-80
2022/01/22 09:48:46;;;;;;;29.50;12.10;;;2.20;82.90;;;;;;4996319;28;20029;-78
2022/01/22 09:51:13;;;;;;;23.50;12.38;;;2.20;83.20;;;;;;5014260;28;20030;-80
2022/01/22 09:53:40;;;;;;;20.67;11.57;;;2.10;83.50;;;;;;5014169;28;20022;-79
2022/01/22 09:56:07;;;;;;;22.15;12.60;;;2.10;83.60;;;;;;4996593;28;20176;-77
2022/01/22 09:58:32;;;;;;;30.17;13.23;;;2.10;84.00;;;;;;4996460;28;20478;-78
2022/01/22 10:01:16;;;;;;;28.80;13.18;;;2.10;84.30;;;;;;5014162;28;20029;-79
2022/01/22 10:03:42;;;;;;;20.90;11.20;;;2.10;84.00;;;;;;4996045;28;20060;-78
2022/01/22 10:06:17;;;;;;;24.15;13.05;;;2.10;84.30;;;;;;4996266;28;20022;-78
2022/01/22 10:08:44;;;;;;;22.73;12.43;;;2.10;83.50;;;;;;4996247;28;20390;-77
2022/01/22 10:11:25;;;;;;;26.50;12.55;;;2.20;83.30;;;;;;4996305;28;20359;-79
2022/01/22 10:13:53;;;;;;;24.35;11.75;;;2.20;83.40;;;;;;4996011;28;20025;-77
2022/01/22 10:16:19;;;;;;;33.65;13.10;;;2.20;83.40;;;;;;4995901;28;20049;-76
2022/01/22 10:18:45;;;;;;;28.05;13.20;;;2.20;83.40;;;;;;4995705;28;20029;-78
2022/01/22 10:21:15;;;;;;;25.75;13.27;;;2.20;83.40;;;;;;5013334;28;20040;-77
2022/01/22 10:23:41;;;;;;;31.02;14.48;;;2.10;83.70;;;;;;4995832;28;20038;-78
2022/01/22 10:26:12;;;;;;;50.88;22.63;;;2.00;84.50;;;;;;4996027;28;20060;-78
2022/01/22 10:28:39;;;;;;;26.27;14.07;;;1.90;84.80;;;;;;4995921;28;20022;-75
2022/01/22 10:31:08;;;;;;;29.85;11.90;;;2.00;84.40;;;;;;4995873;28;20423;-76
2022/01/22 10:33:36;;;;;;;28.33;14.00;;;2.10;84.00;;;;;;4995649;28;20025;-78
2022/01/22 10:36:21;;;;;;;31.23;15.00;;;2.20;83.90;;;;;;4995864;28;20073;-77
2022/01/22 10:38:52;;;;;;;22.17;10.00;;;2.20;84.00;;;;;;4994493;28;20459;-76
2022/01/22 10:41:41;;;;;;;33.63;14.10;;;2.20;83.80;;;;;;4995809;28;20434;-76
2022/01/22 10:44:12;;;;;;;29.90;12.05;;;2.30;83.90;;;;;;5013464;28;20077;-77
2022/01/22 10:49:12;;;;;;;29.45;13.27;;;2.30;83.00;;;;;;5013289;28;20459;-76
2022/01/22 10:52:04;;;;;;;22.58;12.85;;;2.20;83.80;;;;;;4995469;28;20034;-76
2022/01/22 10:54:35;;;;;;;32.03;13.98;;;2.20;84.20;;;;;;4991634;28;20034;-78
2022/01/22 10:57:13;;;;;;;23.92;12.35;;;2.10;84.80;;;;;;4995453;28;20440;-77
2022/01/22 10:59:56;;;;;;;19.23;11.23;;;2.10;84.50;;;;;;5012974;28;20061;-80
2022/01/22 11:02:40;;;;;;;20.60;10.93;;;2.10;85.60;;;;;;4995183;28;20045;-79
2022/01/22 11:05:07;;;;;;;21.67;11.40;;;2.20;84.10;;;;;;4995387;28;20026;-76
2022/01/22 11:07:32;;;;;;;27.05;11.07;;;2.30;83.60;;;;;;4995278;28;20022;-77
2022/01/22 11:09:58;;;;;;;24.05;11.27;;;2.30;83.20;;;;;;4995211;28;20026;-78
2022/01/22 11:12:24;;;;;;;26.02;11.88;;;2.30;83.40;;;;;;4995431;28;20057;-78
2022/01/22 11:14:49;;;;;;;40.25;20.15;;;2.40;84.10;;;;;;4995026;28;20044;-78
2022/01/22 11:17:15;;;;;;;29.70;12.48;;;2.50;83.20;;;;;;5012852;28;20294;-80
2022/01/22 11:19:45;;;;;;;28.08;12.05;;;2.60;82.80;;;;;;4978771;28;20038;-79
2022/01/22 11:22:17;;;;;;;26.75;11.68;;;2.60;82.50;;;;;;5012831;28;20022;-77
2022/01/22 11:24:48;;;;;;;21.13;11.57;;;2.70;82.30;;;;;;4994546;28;20061;-77
2022/01/22 11:27:16;;;;;;;20.13;10.65;;;2.70;82.10;;;;;;5012781;28;20386;-77
2022/01/22 11:29:49;;;;;;;25.73;12.75;;;2.80;82.20;;;;;;5012427;28;20041;-77
2022/01/22 11:32:17;;;;;;;32.90;12.43;;;3.00;81.90;;;;;;4994711;28;20045;-78
2022/01/22 11:34:45;;;;;;;20.80;11.55;;;3.00;81.40;;;;;;4998432;28;20028;-78
2022/01/22 11:37:43;;;;;;;21.25;10.90;;;3.10;81.00;;;;;;4999112;28;20033;-78
2022/01/22 11:40:09;;;;;;;22.23;11.23;;;3.10;80.70;;;;;;4998710;28;20041;-77
2022/01/22 11:43:04;;;;;;;21.42;11.90;;;3.10;81.00;;;;;;4998763;28;20108;-76
2022/01/22 11:45:33;;;;;;;21.23;11.02;;;3.10;81.10;;;;;;4998991;28;20514;-76
2022/01/22 11:48:16;;;;;;;20.48;11.65;;;3.10;80.80;;;;;;4998869;28;20121;-76
2022/01/22 11:50:53;;;;;;;20.00;11.77;;;3.10;80.80;;;;;;5016840;28;20055;-77
2022/01/22 11:53:29;;;;;;;22.45;10.75;;;3.10;80.50;;;;;;4998488;28;20030;-79
2022/01/22 11:56:26;;;;;;;22.45;10.25;;;3.10;80.50;;;;;;5016322;28;20374;-79
2022/01/22 11:59:02;;;;;;;22.70;10.95;;;3.00;80.30;;;;;;4981578;28;20585;-77
2022/01/22 12:01:39;;;;;;;21.98;10.80;;;3.00;81.30;;;;;;5016515;28;20062;-77
2022/01/22 12:04:06;;;;;;;21.98;11.38;;;2.90;81.70;;;;;;4998798;28;20029;-76
2022/01/22 12:06:33;;;;;;;16.52;9.63;;;2.90;82.10;;;;;;4998696;28;20072;-76
2022/01/22 12:09:24;;;;;;;22.70;9.93;;;3.10;81.40;;;;;;4998585;28;20032;-78
2022/01/22 12:14:56;;;;;;;19.20;10.35;;;3.20;80.70;;;;;;5016336;28;20033;-76
2022/01/22 12:17:46;;;;;;;22.70;11.50;;;3.30;80.50;;;;;;5016055;28;20474;-77
2022/01/22 12:23:03;;;;;;;21.48;10.45;;;3.20;80.80;;;;;;5020465;28;20061;-76
2022/01/22 12:25:29;;;;;;;24.48;10.13;;;3.20;81.00;;;;;;4998784;28;20030;-77
2022/01/22 12:27:56;;;;;;;20.08;10.75;;;3.30;80.70;;;;;;4998995;28;20523;-77
2022/01/22 12:30:39;;;;;;;20.95;9.88;;;3.40;80.50;;;;;;4998629;28;20026;-78
2022/01/22 12:33:07;;;;;;;18.45;9.27;;;3.30;80.60;;;;;;4998691;28;20083;-77
2022/01/22 12:35:40;;;;;;;19.90;10.10;;;3.30;81.20;;;;;;4998278;28;20236;-77
2022/01/22 12:38:31;;;;;;;21.50;9.32;;;3.20;81.40;;;;;;4998373;28;20029;-77
2022/01/22 12:41:47;;;;;;;19.23;9.82;;;3.30;80.20;;;;;;4998266;28;20066;-77
2022/01/22 12:44:30;;;;;;;22.48;9.45;;;3.30;80.50;;;;;;5014598;28;20490;-79
2022/01/22 12:47:05;;;;;;;;;;;3.40;80.40;;;;;;5000038;28;20378;-79
2022/01/22 12:49:33;;;;;;;21.20;9.70;;;3.40;79.80;;;;;;4999255;28;20000;-80
2022/01/22 12:52:03;;;;;;;14.80;9.20;;;3.40;80.10;;;;;;5016575;28;20081;-78
2022/01/22 12:54:36;;;;;;;20.42;9.55;;;3.50;80.40;;;;;;4997738;28;20034;-80
2022/01/22 12:57:07;;;;;;;18.02;9.68;;;3.50;80.20;;;;;;4997800;28;20057;-79
2022/01/22 13:00:07;;;;;;;23.70;10.10;;;3.50;80.40;;;;;;5015343;28;20037;-78
2022/01/22 13:02:45;;;;;;;16.13;10.05;;;3.50;80.10;;;;;;4997400;28;20026;-79
2022/01/22 13:05:13;;;;;;;17.50;9.30;;;3.30;80.50;;;;;;4997727;28;20072;-81
2022/01/22 13:07:52;;;;;;;18.55;10.55;;;3.30;81.70;;;;;;4997268;28;20052;-78
2022/01/22 13:10:19;;;;;;;25.00;10.27;;;3.40;81.40;;;;;;4997721;28;20057;-79
2022/01/22 13:12:46;;;;;;;16.58;8.93;;;3.40;80.60;;;;;;5015428;28;20471;-79
2022/01/22 13:15:16;;;;;;;20.77;9.90;;;3.40;80.20;;;;;;4997711;28;20393;-76
2022/01/22 13:17:50;;;;;;;18.58;9.82;;;3.50;80.30;;;;;;4997484;28;20072;-80
2022/01/22 13:20:20;;;;;;;23.25;10.98;;;3.50;80.30;;;;;;5014965;28;20025;-79
2022/01/22 13:22:46;;;;;;;16.45;9.38;;;3.50;80.60;;;;;;4997203;28;20409;-79
2022/01/22 13:25:14;;;;;;;24.73;12.30;;;3.50;80.60;;;;;;4997477;28;20034;-79
2022/01/22 13:27:42;;;;;;;19.27;10.38;;;3.60;80.30;;;;;;5014908;28;20478;-78
2022/01/22 13:30:11;;;;;;;17.10;9.70;;;3.60;80.50;;;;;;4997226;28;20030;-80
2022/01/22 13:32:55;;;;;;;18.80;9.77;;;3.70;80.90;;;;;;5014593;28;20026;-79
2022/01/22 13:38:26;;;;;;;19.40;10.30;;;3.60;80.50;;;;;;5015169;28;20088;-80
2022/01/22 13:49:00;;;;;;;23.67;9.57;;;3.50;80.50;;;;;;5014815;28;20029;-82
2022/01/22 13:51:28;;;;;;;16.83;8.88;;;3.50;80.80;;;;;;4996711;28;20040;-80
2022/01/22 13:53:56;;;;;;;21.38;11.98;;;3.50;80.80;;;;;;4996951;28;20052;-78
2022/01/22 13:56:41;;;;;;;16.83;9.43;;;3.50;80.60;;;;;;4996151;28;20106;-77
2022/01/22 13:59:14;;;;;;;17.77;10.13;;;3.50;80.70;;;;;;5013055;28;20030;-79
2022/01/22 14:01:49;;;;;;;14.63;8.52;;;3.40;81.10;;;;;;5014206;28;20029;-76
2022/01/22 14:04:15;;;;;;;;;;;3.40;80.80;;;;;;4997103;28;20109;-77
2022/01/22 14:06:46;;;;;;;;;;;3.40;80.90;;;;;;4996985;28;20023;-81
2022/01/22 14:09:20;;;;;;;21.55;9.88;;;3.40;81.50;;;;;;4997543;28;19905;-83
2022/01/22 14:12:11;;;;;;;23.92;11.50;;;3.40;81.80;;;;;;5013480;28;20026;-81
2022/01/22 14:14:55;;;;;;;20.08;10.77;;;3.40;82.10;;;;;;4996442;28;20029;-79
2022/01/22 14:17:22;;;;;;;21.50;10.73;;;3.30;82.30;;;;;;4996545;28;20033;-78
2022/01/22 14:20:07;;;;;;;21.92;10.55;;;3.30;82.60;;;;;;4996381;28;20368;-77
2022/01/22 14:23:15;;;;;;;24.17;11.27;;;3.40;82.40;;;;;;4996088;28;20022;-78
2022/01/22 14:26:04;;;;;;;13.32;8.18;;;3.30;82.40;;;;;;4917475;29;20076;-77
2022/01/22 14:28:47;;;;;;;14.27;8.25;;;3.10;82.80;;;;;;4934274;29;20556;-77
2022/01/22 14:31:23;;;;;;;18.67;8.38;;;3.10;83.10;;;;;;4978411;28;20738;-82
2022/01/22 14:33:49;;;;;;;14.27;8.27;;;3.10;83.00;;;;;;4996397;28;20030;-80
2022/01/22 14:36:20;;;;;;;16.30;8.45;;;3.10;83.00;;;;;;4996188;28;20026;-78
2022/01/22 14:38:55;;;;;;;16.85;9.13;;;3.10;83.10;;;;;;4995875;28;20022;-78
2022/01/22 14:44:27;;;;;;;16.27;8.88;;;3.10;82.80;;;;;;5014099;28;20049;-79
2022/01/22 14:47:17;;;;;;;15.55;7.93;;;3.00;82.80;;;;;;4996371;28;20026;-79